createdAt,value
2017-01-20T00:00:11.568Z,45.81
2017-01-20T00:01:22.185Z,45.72
2017-01-20T00:02:31.914Z,45.4
2017-01-20T00:03:42.287Z,45.62
2017-01-20T00:04:52.013Z,45.69
2017-01-20T00:06:01.738Z,45.79
2017-01-20T00:07:11.935Z,45.79
2017-01-20T00:08:21.660Z,45.69
2017-01-20T00:09:30.986Z,45.69
2017-01-20T00:10:41.163Z,45.69
2017-01-20T00:11:51.332Z,45.69
2017-01-20T00:13:01.497Z,46.08
2017-01-20T00:14:11.666Z,46.08
2017-01-20T00:15:21.451Z,46.17
2017-01-20T00:16:31.177Z,46.17
2017-01-20T00:17:41.346Z,45.89
2017-01-20T00:18:51.511Z,45.79
2017-01-20T00:20:01.268Z,46.08
2017-01-20T00:21:11.053Z,45.98
2017-01-20T00:22:20.789Z,46.17
2017-01-20T00:23:30.519Z,45.98
2017-01-20T00:24:40.245Z,46.17
2017-01-20T00:25:49.974Z,46.17
2017-01-20T00:26:59.752Z,46.84
2017-01-20T00:28:09.477Z,46.65
2017-01-20T00:29:19.202Z,46.65
2017-01-20T00:30:28.935Z,46.75
2017-01-20T00:31:38.664Z,46.55
2017-01-20T00:32:48.449Z,46.65
2017-01-20T00:33:59.058Z,46.75
2017-01-20T00:35:09.228Z,46.75
2017-01-20T00:36:19.405Z,46.65
2017-01-20T00:37:29.138Z,46.75
2017-01-20T00:38:39.795Z,46.55
2017-01-20T00:39:49.516Z,46.55
2017-01-20T00:40:59.242Z,46.65
2017-01-20T00:42:09.883Z,46.75
2017-01-20T00:43:19.620Z,46.26
2017-01-20T00:44:29.401Z,46.75
2017-01-20T00:45:39.602Z,46.84
2017-01-20T00:46:49.768Z,46.75
2017-01-20T00:47:59.493Z,46.75
2017-01-20T00:49:09.234Z,46.84
2017-01-20T00:50:19.455Z,46.55
2017-01-20T00:51:28.744Z,46.75
2017-01-20T00:52:38.474Z,46.36
2017-01-20T00:53:48.199Z,46.94
2017-01-20T00:54:57.924Z,46.55
2017-01-20T00:56:07.705Z,46.75
2017-01-20T00:57:17.874Z,46.55
2017-01-20T00:58:27.599Z,46.84
2017-01-20T00:59:37.328Z,46.46
2017-01-20T01:00:47.054Z,46.17
2017-01-20T01:01:57.335Z,46.75
2017-01-20T01:03:07.075Z,46.65
2017-01-20T01:04:16.809Z,46.72
2017-01-20T01:05:26.539Z,46.84
2017-01-20T01:06:36.715Z,46.44
2017-01-20T01:07:46.501Z,46.82
2017-01-20T01:08:56.670Z,46.25
2017-01-20T01:10:06.405Z,46.62
2017-01-20T01:11:16.128Z,46.62
2017-01-20T01:12:25.441Z,46.25
2017-01-20T01:13:35.666Z,46.62
2017-01-20T01:14:45.399Z,46.44
2017-01-20T01:15:55.564Z,46.53
2017-01-20T01:17:04.853Z,46.25
2017-01-20T01:18:14.582Z,46.53
2017-01-20T01:19:24.511Z,46.34
2017-01-20T01:20:33.796Z,46.53
2017-01-20T01:21:43.525Z,46.53
2017-01-20T01:22:54.138Z,46.34
2017-01-20T01:24:04.315Z,46.53
2017-01-20T01:25:14.104Z,46.62
2017-01-20T01:26:24.284Z,46.25
2017-01-20T01:27:34.010Z,46.34
2017-01-20T01:28:43.739Z,46.34
2017-01-20T01:29:53.473Z,46.72
2017-01-20T01:31:02.805Z,46.72
2017-01-20T01:32:12.535Z,46.72
2017-01-20T01:33:22.259Z,46.72
2017-01-20T01:34:31.985Z,46.72
2017-01-20T01:35:41.714Z,46.53
2017-01-20T01:36:51.496Z,46.53
2017-01-20T01:38:01.228Z,46.44
2017-01-20T01:39:11.394Z,46.62
2017-01-20T01:40:21.575Z,46.82
2017-01-20T01:41:31.752Z,46.44
2017-01-20T01:42:41.529Z,47.01
2017-01-20T01:43:51.257Z,47.01
2017-01-20T01:45:00.991Z,47.01
2017-01-20T01:46:10.720Z,47.3
2017-01-20T01:47:20.449Z,47.11
2017-01-20T01:48:30.227Z,47.01
2017-01-20T01:49:39.954Z,47.39
2017-01-20T01:50:50.121Z,47.01
2017-01-20T01:51:59.846Z,47.3
2017-01-20T01:53:09.575Z,47.2
2017-01-20T01:54:19.792Z,47.11
2017-01-20T01:55:29.070Z,47.49
2017-01-20T01:56:39.239Z,47.01
2017-01-20T01:57:48.524Z,47.3
2017-01-20T01:58:58.693Z,47.39
2017-01-20T02:00:08.025Z,47.49
2017-01-20T02:01:18.191Z,47.2
2017-01-20T02:02:28.384Z,47.68
2017-01-20T02:03:38.106Z,47.58
2017-01-20T02:04:47.831Z,47.68
2017-01-20T02:05:57.612Z,47.68
2017-01-20T02:07:07.337Z,47.58
2017-01-20T02:08:17.067Z,47.78
2017-01-20T02:09:26.804Z,47.3
2017-01-20T02:10:37.417Z,47.58
2017-01-20T02:11:47.198Z,47.75
2017-01-20T02:12:56.924Z,47.66
2017-01-20T02:14:07.093Z,47.66
2017-01-20T02:15:17.262Z,47.94
2017-01-20T02:16:26.995Z,47.87
2017-01-20T02:17:36.772Z,47.47
2017-01-20T02:18:46.497Z,47.75
2017-01-20T02:19:56.235Z,48.42
2017-01-20T02:21:06.408Z,48.13
2017-01-20T02:22:16.133Z,48.04
2017-01-20T02:23:25.922Z,48.04
2017-01-20T02:24:35.659Z,48.33
2017-01-20T02:25:46.269Z,48.13
2017-01-20T02:26:56.446Z,48.23
2017-01-20T02:28:06.179Z,47.56
2017-01-20T02:29:15.956Z,48.42
2017-01-20T02:30:25.685Z,48.13
2017-01-20T02:31:35.415Z,48.13
2017-01-20T02:32:45.592Z,48.23
2017-01-20T02:33:55.761Z,48.23
2017-01-20T02:35:05.550Z,48.42
2017-01-20T02:36:15.279Z,48.13
2017-01-20T02:37:25.140Z,48.04
2017-01-20T02:38:34.873Z,48.23
2017-01-20T02:39:45.043Z,48.04
2017-01-20T02:40:54.824Z,48.23
2017-01-20T02:42:04.565Z,48.33
2017-01-20T02:43:14.289Z,48.52
2017-01-20T02:44:24.022Z,48.33
2017-01-20T02:45:33.736Z,48.52
2017-01-20T02:46:43.065Z,48.23
2017-01-20T02:47:52.778Z,48.23
2017-01-20T02:49:02.499Z,48.13
2017-01-20T02:50:12.216Z,48.23
2017-01-20T02:51:21.929Z,48.23
2017-01-20T02:52:32.142Z,48.33
2017-01-20T02:53:41.864Z,48.33
2017-01-20T02:54:51.145Z,48.13
2017-01-20T02:56:00.426Z,47.85
2017-01-20T02:57:10.148Z,48.13
2017-01-20T02:58:20.792Z,48.13
2017-01-20T02:59:30.517Z,47.94
2017-01-20T03:00:40.675Z,47.85
2017-01-20T03:01:50.389Z,47.94
2017-01-20T03:03:00.989Z,48.04
2017-01-20T03:04:11.194Z,48.33
2017-01-20T03:05:20.911Z,48.33
2017-01-20T03:06:30.624Z,48.13
2017-01-20T03:07:40.361Z,47.75
2017-01-20T03:08:49.642Z,48.13
2017-01-20T03:09:59.412Z,48.33
2017-01-20T03:11:08.689Z,48.13
2017-01-20T03:12:18.842Z,48.13
2017-01-20T03:13:29.004Z,48.04
2017-01-20T03:14:38.717Z,48.33
2017-01-20T03:15:49.562Z,48.13
2017-01-20T03:16:59.275Z,48.61
2017-01-20T03:18:09.436Z,48.52
2017-01-20T03:19:18.725Z,48.42
2017-01-20T03:20:28.446Z,48.61
2017-01-20T03:21:38.212Z,48.71
2017-01-20T03:22:47.496Z,48.59
2017-01-20T03:23:58.086Z,48.52
2017-01-20T03:25:08.239Z,48.3
2017-01-20T03:26:17.516Z,48.42
2017-01-20T03:27:27.285Z,48.13
2017-01-20T03:28:37.467Z,48.33
2017-01-20T03:29:47.615Z,48.33
2017-01-20T03:30:57.329Z,48.23
2017-01-20T03:32:07.918Z,48.59
2017-01-20T03:33:18.283Z,48.49
2017-01-20T03:34:28.437Z,48.33
2017-01-20T03:35:37.718Z,48.3
2017-01-20T03:36:47.863Z,48.21
2017-01-20T03:37:58.016Z,48.23
2017-01-20T03:39:07.341Z,48.21
2017-01-20T03:40:16.619Z,47.92
2017-01-20T03:41:27.207Z,48.11
2017-01-20T03:42:37.357Z,48.49
2017-01-20T03:43:46.635Z,48.59
2017-01-20T03:44:56.832Z,48.68
2017-01-20T03:46:06.549Z,48.3
2017-01-20T03:47:17.582Z,48.59
2017-01-20T03:48:27.327Z,48.39
2017-01-20T03:49:37.045Z,48.59
2017-01-20T03:50:46.378Z,48.68
2017-01-20T03:51:56.095Z,48.59
2017-01-20T03:53:05.808Z,48.52
2017-01-20T03:54:15.082Z,48.3
2017-01-20T03:55:24.799Z,48.39
2017-01-20T03:56:34.560Z,48.3
2017-01-20T03:57:44.717Z,48.68
2017-01-20T03:58:54.430Z,48.39
2017-01-20T04:00:04.583Z,48.59
2017-01-20T04:01:14.296Z,48.59
2017-01-20T04:02:24.066Z,48.59
2017-01-20T04:03:34.219Z,48.3
2017-01-20T04:04:44.809Z,48.39
2017-01-20T04:05:54.085Z,48.59
2017-01-20T04:07:04.249Z,48.39
2017-01-20T04:08:14.015Z,48.39
2017-01-20T04:09:24.164Z,48.3
2017-01-20T04:10:33.445Z,48.59
2017-01-20T04:11:44.035Z,48.59
2017-01-20T04:12:53.752Z,48.49
2017-01-20T04:14:03.517Z,48.59
2017-01-20T04:15:13.226Z,48.59
2017-01-20T04:16:23.379Z,48.59
2017-01-20T04:17:33.558Z,48.3
2017-01-20T04:18:43.713Z,48.3
2017-01-20T04:19:53.922Z,48.3
2017-01-20T04:21:04.087Z,48.3
2017-01-20T04:22:14.237Z,48.3
2017-01-20T04:23:24.393Z,48.11
2017-01-20T04:24:34.122Z,48.3
2017-01-20T04:25:44.327Z,48.39
2017-01-20T04:26:54.920Z,48.59
2017-01-20T04:28:04.201Z,48.49
2017-01-20T04:29:14.363Z,48.68
2017-01-20T04:30:24.959Z,48.39
2017-01-20T04:31:34.724Z,48.59
2017-01-20T04:32:45.321Z,48.59
2017-01-20T04:33:55.502Z,48.39
2017-01-20T04:35:04.775Z,48.3
2017-01-20T04:36:14.489Z,48.59
2017-01-20T04:37:24.693Z,48.3
2017-01-20T04:38:34.418Z,48.59
2017-01-20T04:39:44.136Z,48.39
2017-01-20T04:40:53.849Z,48.3
2017-01-20T04:42:04.006Z,48.49
2017-01-20T04:43:14.643Z,48.39
2017-01-20T04:44:24.361Z,48.49
2017-01-20T04:45:33.638Z,48.59
2017-01-20T04:46:42.915Z,48.59
2017-01-20T04:47:52.657Z,48.59
2017-01-20T04:49:02.426Z,48.78
2017-01-20T04:50:12.143Z,48.68
2017-01-20T04:51:22.292Z,48.59
2017-01-20T04:52:32.009Z,48.78
2017-01-20T04:53:42.170Z,48.68
2017-01-20T04:54:52.375Z,48.88
2017-01-20T04:56:02.530Z,48.39
2017-01-20T04:57:12.286Z,48.78
2017-01-20T04:58:21.575Z,48.39
2017-01-20T04:59:31.729Z,48.39
2017-01-20T05:00:41.934Z,48.39
2017-01-20T05:01:52.095Z,48.39
2017-01-20T05:03:01.812Z,48.95
2017-01-20T05:04:12.407Z,48.39
2017-01-20T05:05:22.567Z,48.78
2017-01-20T05:06:32.428Z,48.78
2017-01-20T05:07:42.141Z,48.49
2017-01-20T05:08:51.862Z,48.97
2017-01-20T05:10:02.016Z,48.68
2017-01-20T05:11:11.722Z,48.57
2017-01-20T05:12:21.050Z,48.68
2017-01-20T05:13:30.332Z,48.49
2017-01-20T05:14:40.049Z,48.49
2017-01-20T05:15:50.207Z,48.97
2017-01-20T05:16:59.928Z,48.68
2017-01-20T05:18:10.233Z,48.59
2017-01-20T05:19:19.946Z,48.49
2017-01-20T05:20:29.224Z,48.68
2017-01-20T05:21:39.817Z,48.68
2017-01-20T05:22:49.534Z,48.57
2017-01-20T05:23:59.303Z,48.47
2017-01-20T05:25:09.021Z,48.68
2017-01-20T05:26:19.610Z,48.95
2017-01-20T05:27:29.767Z,48.57
2017-01-20T05:28:39.484Z,48.75
2017-01-20T05:29:49.254Z,48.75
2017-01-20T05:30:59.403Z,48.75
2017-01-20T05:32:09.560Z,48.88
2017-01-20T05:33:19.273Z,48.66
2017-01-20T05:34:29.431Z,48.85
2017-01-20T05:35:39.192Z,49.16
2017-01-20T05:36:49.794Z,49.33
2017-01-20T05:38:00.382Z,48.95
2017-01-20T05:39:09.660Z,49.64
2017-01-20T05:40:19.377Z,49.52
2017-01-20T05:41:28.706Z,50
2017-01-20T05:42:38.423Z,49.62
2017-01-20T05:43:48.584Z,49.52
2017-01-20T05:44:58.306Z,49.71
2017-01-20T05:46:08.451Z,50.38
2017-01-20T05:47:18.227Z,50.29
2017-01-20T05:48:28.829Z,49.71
2017-01-20T05:49:38.542Z,49.8
2017-01-20T05:50:48.265Z,49.8
2017-01-20T05:51:57.545Z,49.9
2017-01-20T05:53:08.194Z,50.09
2017-01-20T05:54:18.351Z,49.9
2017-01-20T05:55:27.649Z,49.8
2017-01-20T05:56:36.938Z,49.9
2017-01-20T05:57:46.651Z,50.09
2017-01-20T05:58:56.444Z,49.62
2017-01-20T06:00:06.162Z,49.62
2017-01-20T06:01:16.746Z,49.93
2017-01-20T06:02:26.900Z,50.19
2017-01-20T06:03:37.053Z,49.43
2017-01-20T06:04:46.382Z,49.23
2017-01-20T06:05:55.664Z,49.52
2017-01-20T06:07:05.385Z,49.43
2017-01-20T06:08:15.094Z,49.8
2017-01-20T06:09:25.691Z,49.14
2017-01-20T06:10:36.328Z,49.04
2017-01-20T06:11:46.918Z,49.14
2017-01-20T06:12:56.635Z,49.33
2017-01-20T06:14:06.792Z,49.14
2017-01-20T06:15:16.509Z,48.85
2017-01-20T06:16:26.274Z,48.95
2017-01-20T06:17:36.424Z,48.85
2017-01-20T06:18:46.580Z,48.75
2017-01-20T06:19:56.294Z,48.75
2017-01-20T06:21:06.451Z,48.85
2017-01-20T06:22:15.808Z,48.57
2017-01-20T06:23:25.525Z,48.57
2017-01-20T06:24:35.247Z,48.38
2017-01-20T06:25:44.964Z,48.66
2017-01-20T06:26:54.253Z,48.57
2017-01-20T06:28:04.458Z,48.75
2017-01-20T06:29:14.611Z,48.75
2017-01-20T06:30:24.768Z,49.33
2017-01-20T06:31:34.490Z,48.95
2017-01-20T06:32:44.206Z,49.14
2017-01-20T06:33:54.408Z,48.85
2017-01-20T06:35:04.561Z,48.95
2017-01-20T06:36:15.146Z,48.66
2017-01-20T06:37:25.739Z,48.38
2017-01-20T06:38:35.461Z,48.66
2017-01-20T06:39:46.110Z,48.85
2017-01-20T06:40:56.703Z,48.75
2017-01-20T06:42:06.416Z,48.28
2017-01-20T06:43:16.569Z,48.09
2017-01-20T06:44:27.159Z,47.71
2017-01-20T06:45:37.808Z,48.09
2017-01-20T06:46:47.093Z,48.18
2017-01-20T06:47:56.806Z,47.8
2017-01-20T06:49:06.083Z,47.71
2017-01-20T06:50:16.236Z,47.52
2017-01-20T06:51:26.010Z,47.32
2017-01-20T06:52:36.166Z,47.32
2017-01-20T06:53:45.440Z,47.52
2017-01-20T06:54:55.158Z,47.13
2017-01-20T06:56:04.903Z,47.23
2017-01-20T06:57:14.675Z,47.13
2017-01-20T06:58:24.832Z,47.23
2017-01-20T06:59:34.550Z,46.66
2017-01-20T07:00:44.703Z,46.75
2017-01-20T07:01:54.420Z,47.13
2017-01-20T07:03:04.629Z,46.84
2017-01-20T07:04:14.346Z,47.13
2017-01-20T07:05:24.500Z,46.84
2017-01-20T07:06:34.217Z,46.94
2017-01-20T07:07:44.370Z,46.75
2017-01-20T07:08:54.731Z,46.84
2017-01-20T07:10:04.885Z,46.84
2017-01-20T07:11:15.039Z,46.27
2017-01-20T07:12:24.750Z,46.66
2017-01-20T07:13:34.908Z,46.56
2017-01-20T07:14:44.673Z,46.63
2017-01-20T07:15:55.262Z,46.56
2017-01-20T07:17:05.863Z,46.56
2017-01-20T07:18:15.140Z,46.56
2017-01-20T07:19:25.294Z,46.75
2017-01-20T07:20:35.059Z,46.72
2017-01-20T07:21:45.656Z,46.72
2017-01-20T07:22:55.810Z,46.44
2017-01-20T07:24:05.959Z,46.06
2017-01-20T07:25:16.544Z,45.87
2017-01-20T07:26:26.309Z,46.44
2017-01-20T07:27:36.471Z,46.44
2017-01-20T07:28:45.752Z,45.87
2017-01-20T07:29:55.469Z,45.77
2017-01-20T07:31:05.188Z,45.87
2017-01-20T07:32:15.828Z,45.58
2017-01-20T07:33:25.548Z,45.67
2017-01-20T07:34:36.138Z,45.87
2017-01-20T07:35:46.291Z,45.39
2017-01-20T07:36:55.568Z,45.48
2017-01-20T07:38:05.341Z,45.39
2017-01-20T07:39:15.058Z,45.29
2017-01-20T07:40:25.208Z,45.48
2017-01-20T07:41:35.797Z,45.2
2017-01-20T07:42:46.386Z,45.2
2017-01-20T07:43:55.715Z,45.48
2017-01-20T07:45:04.988Z,45.58
2017-01-20T07:46:14.706Z,45.58
2017-01-20T07:47:24.419Z,44.81
2017-01-20T07:48:34.136Z,45.1
2017-01-20T07:49:44.777Z,44.91
2017-01-20T07:50:54.063Z,44.62
2017-01-20T07:52:03.783Z,44.81
2017-01-20T07:53:13.929Z,44.81
2017-01-20T07:54:24.078Z,44.81
2017-01-20T07:55:33.844Z,44.91
2017-01-20T07:56:43.997Z,44.62
2017-01-20T07:57:53.714Z,45.01
2017-01-20T07:59:03.426Z,44.91
2017-01-20T08:00:14.019Z,44.43
2017-01-20T08:01:24.660Z,44.34
2017-01-20T08:02:34.814Z,44.34
2017-01-20T08:03:44.530Z,44.34
2017-01-20T08:04:54.267Z,44.43
2017-01-20T08:06:04.420Z,44.34
2017-01-20T08:07:14.186Z,44.34
2017-01-20T08:08:24.343Z,44.05
2017-01-20T08:09:34.931Z,43.95
2017-01-20T08:10:44.644Z,44.24
2017-01-20T08:11:53.926Z,44.24
2017-01-20T08:13:03.698Z,44.15
2017-01-20T08:14:12.971Z,44.24
2017-01-20T08:15:22.760Z,44.24
2017-01-20T08:16:32.477Z,44.34
2017-01-20T08:17:42.626Z,43.86
2017-01-20T08:18:52.399Z,43.57
2017-01-20T08:20:02.556Z,43.57
2017-01-20T08:21:13.149Z,43.29
2017-01-20T08:22:23.742Z,43.48
2017-01-20T08:23:33.015Z,43.76
2017-01-20T08:24:43.380Z,43.29
2017-01-20T08:25:53.093Z,43.29
2017-01-20T08:27:03.258Z,43.48
2017-01-20T08:28:12.531Z,43.38
2017-01-20T08:29:22.256Z,43.48
2017-01-20T08:30:32.609Z,43.76
2017-01-20T08:31:42.330Z,43.66
2017-01-20T08:32:52.070Z,43.66
2017-01-20T08:34:02.663Z,43.38
2017-01-20T08:35:11.937Z,43.09
2017-01-20T08:36:22.138Z,43.09
2017-01-20T08:37:31.410Z,43.19
2017-01-20T08:38:41.131Z,43.48
2017-01-20T08:39:51.285Z,43.66
2017-01-20T08:41:01.882Z,43.76
2017-01-20T08:42:11.218Z,43.38
2017-01-20T08:43:20.492Z,43.38
2017-01-20T08:44:29.776Z,43.29
2017-01-20T08:45:39.489Z,43.4
2017-01-20T08:46:49.210Z,43.12
2017-01-20T08:47:59.415Z,43.12
2017-01-20T08:49:09.584Z,43.3
2017-01-20T08:50:19.742Z,43.12
2017-01-20T08:51:29.895Z,43.02
2017-01-20T08:52:39.616Z,43.02
2017-01-20T08:53:49.829Z,42.93
2017-01-20T08:54:59.555Z,43.12
2017-01-20T08:56:08.837Z,43.14
2017-01-20T08:57:19.001Z,42.76
2017-01-20T08:58:29.590Z,42.85
2017-01-20T08:59:39.384Z,42.76
2017-01-20T09:00:49.100Z,42.94
2017-01-20T09:01:58.841Z,42.94
2017-01-20T09:03:08.123Z,42.56
2017-01-20T09:04:17.401Z,42.47
2017-01-20T09:05:27.174Z,42.77
2017-01-20T09:06:37.766Z,42.49
2017-01-20T09:07:47.920Z,42.77
2017-01-20T09:08:57.641Z,42.58
2017-01-20T09:10:06.922Z,42.87
2017-01-20T09:11:17.128Z,42.77
2017-01-20T09:12:26.400Z,42.6
2017-01-20T09:13:36.982Z,42.6
2017-01-20T09:14:47.127Z,42.8
2017-01-20T09:15:57.721Z,42.8
2017-01-20T09:17:07.929Z,42.7
2017-01-20T09:18:17.211Z,42.7
2017-01-20T09:19:27.363Z,42.99
2017-01-20T09:20:37.521Z,42.6
2017-01-20T09:21:47.686Z,42.41
2017-01-20T09:22:57.451Z,42.34
2017-01-20T09:24:07.608Z,42.53
2017-01-20T09:25:17.321Z,42.53
2017-01-20T09:26:27.479Z,42.53
2017-01-20T09:27:38.532Z,42.14
2017-01-20T09:28:48.306Z,42.14
2017-01-20T09:29:58.019Z,41.96
2017-01-20T09:31:08.180Z,42.14
2017-01-20T09:32:18.336Z,42.05
2017-01-20T09:33:27.614Z,42.24
2017-01-20T09:34:37.823Z,42.05
2017-01-20T09:35:47.112Z,41.96
2017-01-20T09:36:57.269Z,42.27
2017-01-20T09:38:06.550Z,41.67
2017-01-20T09:39:16.275Z,41.69
2017-01-20T09:40:26.056Z,41.69
2017-01-20T09:41:36.650Z,41.97
2017-01-20T09:42:46.363Z,41.78
2017-01-20T09:43:55.641Z,41.78
2017-01-20T09:45:05.362Z,41.69
2017-01-20T09:46:15.999Z,41.69
2017-01-20T09:47:25.284Z,41.78
2017-01-20T09:48:35.441Z,41.69
2017-01-20T09:49:45.163Z,41.5
2017-01-20T09:50:54.884Z,41.69
2017-01-20T09:52:05.093Z,41.6
2017-01-20T09:53:14.378Z,41.11
2017-01-20T09:54:24.099Z,41.31
2017-01-20T09:55:33.377Z,41.31
2017-01-20T09:56:42.655Z,41.31
2017-01-20T09:57:52.423Z,41.11
2017-01-20T09:59:02.581Z,41.4
2017-01-20T10:00:12.306Z,41.02
2017-01-20T10:01:22.903Z,41.11
2017-01-20T10:02:32.180Z,41.21
2017-01-20T10:03:41.950Z,41.31
2017-01-20T10:04:51.227Z,41.6
2017-01-20T10:06:01.380Z,41.69
2017-01-20T10:07:11.597Z,42.07
2017-01-20T10:08:23.923Z,42.46
2017-01-20T10:09:33.688Z,42.65
2017-01-20T10:10:44.285Z,42.94
2017-01-20T10:11:54.006Z,43.32
2017-01-20T10:13:04.168Z,43.41
2017-01-20T10:14:13.449Z,43.34
2017-01-20T10:15:24.094Z,43.53
2017-01-20T10:16:33.807Z,43.24
2017-01-20T10:17:43.964Z,43.6
2017-01-20T10:18:54.557Z,43.34
2017-01-20T10:20:04.279Z,43.91
2017-01-20T10:21:13.608Z,43.63
2017-01-20T10:22:23.764Z,43.63
2017-01-20T10:23:34.358Z,43.63
2017-01-20T10:24:44.079Z,43.63
2017-01-20T10:25:54.243Z,43.63
2017-01-20T10:27:04.013Z,43.44
2017-01-20T10:28:13.726Z,43.82
2017-01-20T10:29:23.456Z,43.24
2017-01-20T10:30:32.740Z,43.24
2017-01-20T10:31:42.458Z,43.44
2017-01-20T10:32:52.667Z,43.36
2017-01-20T10:34:01.948Z,43.53
2017-01-20T10:35:12.546Z,43.36
2017-01-20T10:36:22.703Z,43.27
2017-01-20T10:37:33.740Z,43.27
2017-01-20T10:38:43.505Z,42.88
2017-01-20T10:39:53.222Z,43.27
2017-01-20T10:41:03.824Z,42.69
2017-01-20T10:42:13.545Z,42.79
2017-01-20T10:43:23.266Z,43.07
2017-01-20T10:44:33.467Z,42.98
2017-01-20T10:45:43.188Z,42.6
2017-01-20T10:46:53.786Z,42.88
2017-01-20T10:48:03.519Z,42.88
2017-01-20T10:49:13.236Z,42.69
2017-01-20T10:50:22.561Z,42.88
2017-01-20T10:51:32.310Z,42.52
2017-01-20T10:52:42.028Z,42.71
2017-01-20T10:53:51.753Z,42.61
2017-01-20T10:55:01.474Z,42.71
2017-01-20T10:56:11.683Z,42.54
2017-01-20T10:57:21.854Z,42.16
2017-01-20T10:58:32.018Z,42.06
2017-01-20T10:59:42.199Z,42.25
2017-01-20T11:00:51.920Z,42.16
2017-01-20T11:02:01.694Z,41.77
2017-01-20T11:03:11.415Z,41.58
2017-01-20T11:04:20.716Z,41.79
2017-01-20T11:05:30.433Z,41.31
2017-01-20T11:06:40.595Z,41.31
2017-01-20T11:07:50.824Z,41.5
2017-01-20T11:09:00.981Z,41.41
2017-01-20T11:10:10.706Z,41.05
2017-01-20T11:11:20.427Z,41.14
2017-01-20T11:12:29.704Z,41.14
2017-01-20T11:13:39.921Z,41.14
2017-01-20T11:14:50.507Z,40.85
2017-01-20T11:16:00.228Z,41.24
2017-01-20T11:17:10.825Z,41.26
2017-01-20T11:18:21.422Z,40.49
2017-01-20T11:19:33.040Z,40.49
2017-01-20T11:20:48.073Z,40.39
2017-01-20T11:22:01.666Z,40.39
2017-01-20T11:23:12.519Z,40.11
2017-01-20T11:24:27.449Z,40.12
2017-01-20T11:25:39.366Z,39.74
2017-01-20T11:26:49.523Z,40.03
2017-01-20T11:28:00.120Z,39.93
2017-01-20T11:29:10.593Z,39.64
2017-01-20T11:30:20.699Z,39.93
2017-01-20T11:31:30.424Z,39.74
2017-01-20T11:32:40.669Z,39.66
2017-01-20T11:33:51.431Z,39.95
2017-01-20T11:35:01.948Z,39.37
2017-01-20T11:36:11.734Z,38.99
2017-01-20T11:37:21.019Z,38.99
2017-01-20T11:38:31.312Z,39.01
2017-01-20T11:39:41.385Z,38.99
2017-01-20T11:40:51.990Z,38.81
2017-01-20T11:42:01.763Z,38.91
2017-01-20T11:43:11.480Z,39.01
2017-01-20T11:44:21.206Z,39.11
2017-01-20T11:45:31.371Z,38.91
2017-01-20T11:46:41.020Z,39.01
2017-01-20T11:47:50.697Z,38.62
2017-01-20T11:49:00.790Z,38.93
2017-01-20T11:50:10.884Z,38.54
2017-01-20T11:51:21.341Z,38.45
2017-01-20T11:52:31.090Z,38.54
2017-01-20T11:53:41.303Z,38.54
2017-01-20T11:54:51.460Z,38.26
2017-01-20T11:56:01.182Z,38.26
2017-01-20T11:57:10.903Z,38.26
2017-01-20T11:58:21.040Z,37.87
2017-01-20T11:59:33.701Z,37.98
2017-01-20T12:00:44.131Z,38.08
2017-01-20T12:01:54.772Z,38.28
2017-01-20T12:03:05.401Z,37.89
2017-01-20T12:04:14.691Z,37.7
2017-01-20T12:05:24.463Z,37.7
2017-01-20T12:06:34.181Z,37.81
2017-01-20T12:07:44.426Z,37.7
2017-01-20T12:08:54.742Z,37.33
2017-01-20T12:10:05.140Z,37.43
2017-01-20T12:11:15.369Z,37.23
2017-01-20T12:12:26.010Z,37.23
2017-01-20T12:13:35.407Z,37.33
2017-01-20T12:14:44.792Z,37.04
2017-01-20T12:15:54.097Z,36.96
2017-01-20T12:17:03.430Z,37.35
2017-01-20T12:18:12.719Z,36.96
2017-01-20T12:19:22.436Z,37.15
2017-01-20T12:20:32.529Z,37.35
2017-01-20T12:21:42.359Z,37.15
2017-01-20T12:22:52.272Z,36.96
2017-01-20T12:24:01.553Z,36.87
2017-01-20T12:25:11.838Z,37.08
2017-01-20T12:26:23.055Z,36.79
2017-01-20T12:27:32.348Z,36.59
2017-01-20T12:28:42.833Z,36.5
2017-01-20T12:29:52.722Z,36.88
2017-01-20T12:31:04.008Z,36.59
2017-01-20T12:32:13.733Z,36.59
2017-01-20T12:33:23.454Z,36.79
2017-01-20T12:34:33.231Z,36.21
2017-01-20T12:35:42.956Z,36.32
2017-01-20T12:36:52.677Z,36.01
2017-01-20T12:38:03.338Z,36.21
2017-01-20T12:39:13.500Z,36.03
2017-01-20T12:40:23.717Z,36.22
2017-01-20T12:41:33.443Z,36.42
2017-01-20T12:42:43.172Z,36.22
2017-01-20T12:43:52.461Z,36.32
2017-01-20T12:45:02.618Z,36.13
2017-01-20T12:46:12.392Z,36.22
2017-01-20T12:47:22.122Z,36.03
2017-01-20T12:48:31.934Z,35.64
2017-01-20T12:49:41.659Z,35.84
2017-01-20T12:50:52.269Z,35.55
2017-01-20T12:52:02.038Z,35.45
2017-01-20T12:53:11.771Z,35.57
2017-01-20T12:54:21.502Z,35.57
2017-01-20T12:55:31.661Z,35.47
2017-01-20T12:56:41.395Z,35.57
2017-01-20T12:57:51.616Z,35.57
2017-01-20T12:59:01.345Z,35.57
2017-01-20T13:00:11.947Z,35.47
2017-01-20T13:01:22.552Z,35.57
2017-01-20T13:02:32.717Z,35.47
2017-01-20T13:03:43.222Z,35.18
2017-01-20T13:04:53.660Z,34.81
2017-01-20T13:06:03.513Z,34.71
2017-01-20T13:07:14.314Z,34.62
2017-01-20T13:08:26.263Z,34.81
2017-01-20T13:09:37.817Z,34.52
2017-01-20T13:10:47.538Z,34.42
2017-01-20T13:11:57.823Z,34.52
2017-01-20T13:13:08.416Z,34.52
2017-01-20T13:14:18.653Z,34.33
2017-01-20T13:15:28.863Z,34.62
2017-01-20T13:16:38.187Z,34.52
2017-01-20T13:17:48.525Z,34.42
2017-01-20T13:18:59.122Z,34.81
2017-01-20T13:20:09.935Z,34.52
2017-01-20T13:21:19.692Z,34.42
2017-01-20T13:22:29.853Z,34.42
2017-01-20T13:23:40.023Z,34.42
2017-01-20T13:24:49.748Z,34.42
2017-01-20T13:25:59.473Z,34.52
2017-01-20T13:27:09.690Z,34.42
2017-01-20T13:28:18.972Z,34.63
2017-01-20T13:29:29.725Z,34.44
2017-01-20T13:30:40.438Z,34.63
2017-01-20T13:31:50.255Z,34.34
2017-01-20T13:33:00.264Z,34.44
2017-01-20T13:34:09.985Z,34.34
2017-01-20T13:35:19.271Z,34.52
2017-01-20T13:36:28.556Z,34.54
2017-01-20T13:37:38.281Z,34.44
2017-01-20T13:38:47.833Z,34.83
2017-01-20T13:39:58.427Z,34.63
2017-01-20T13:41:08.260Z,34.44
2017-01-20T13:42:18.082Z,34.73
2017-01-20T13:43:28.679Z,34.83
2017-01-20T13:44:39.500Z,34.83
2017-01-20T13:45:49.781Z,34.73
2017-01-20T13:47:00.055Z,34.73
2017-01-20T13:48:10.212Z,34.63
2017-01-20T13:49:20.149Z,34.83
2017-01-20T13:50:30.566Z,34.63
2017-01-20T13:51:40.311Z,34.63
2017-01-20T13:52:50.476Z,34.73
2017-01-20T13:54:00.885Z,34.44
2017-01-20T13:55:10.607Z,34.63
2017-01-20T13:56:21.256Z,34.83
2017-01-20T13:57:30.749Z,34.54
2017-01-20T13:58:40.478Z,34.44
2017-01-20T13:59:49.764Z,34.34
2017-01-20T14:00:59.224Z,34.44
2017-01-20T14:02:09.438Z,34.44
2017-01-20T14:03:19.379Z,34.63
2017-01-20T14:04:29.104Z,34.44
2017-01-20T14:05:39.269Z,34.44
2017-01-20T14:06:48.555Z,34.44
2017-01-20T14:07:58.712Z,34.33
2017-01-20T14:09:08.881Z,34.62
2017-01-20T14:10:19.602Z,34.62
2017-01-20T14:11:28.991Z,34.71
2017-01-20T14:12:38.716Z,34.42
2017-01-20T14:13:48.490Z,34.71
2017-01-20T14:14:58.790Z,34.62
2017-01-20T14:16:08.728Z,34.62
2017-01-20T14:17:19.325Z,34.5
2017-01-20T14:18:30.026Z,34.6
2017-01-20T14:19:40.092Z,34.89
2017-01-20T14:20:49.841Z,34.99
2017-01-20T14:22:00.002Z,35.18
2017-01-20T14:23:09.292Z,35.57
2017-01-20T14:24:19.132Z,35.55
2017-01-20T14:25:28.974Z,35.36
2017-01-20T14:26:39.627Z,35.45
2017-01-20T14:27:50.396Z,35.64
2017-01-20T14:29:01.181Z,35.84
2017-01-20T14:30:11.778Z,35.74
2017-01-20T14:31:21.992Z,35.74
2017-01-20T14:32:31.717Z,35.84
2017-01-20T14:33:41.894Z,35.94
2017-01-20T14:34:52.868Z,36.3
2017-01-20T14:36:03.033Z,36.11
2017-01-20T14:37:13.042Z,36.3
2017-01-20T14:38:23.419Z,36.11
2017-01-20T14:39:32.700Z,36.11
2017-01-20T14:40:42.962Z,36.4
2017-01-20T14:41:52.467Z,36.79
2017-01-20T14:43:01.804Z,36.79
2017-01-20T14:44:11.533Z,36.79
2017-01-20T14:45:21.846Z,36.96
2017-01-20T14:46:31.784Z,36.67
2017-01-20T14:47:41.945Z,36.77
2017-01-20T14:48:53.238Z,37.15
2017-01-20T14:50:02.988Z,36.87
2017-01-20T14:51:13.148Z,36.96
2017-01-20T14:52:23.086Z,37.15
2017-01-20T14:53:32.803Z,37.15
2017-01-20T14:54:43.468Z,36.94
2017-01-20T14:55:56.934Z,37.23
2017-01-20T14:57:14.671Z,37.33
2017-01-20T14:58:30.753Z,37.33
2017-01-20T14:59:44.658Z,37.33
2017-01-20T15:00:54.923Z,37.21
2017-01-20T15:02:05.960Z,37.12
2017-01-20T15:03:16.261Z,36.93